Time;durP1;ratioP1;P1;durP2;ratioP2;P2;SDS_P1;SDS_P2;PMS_P1;PMS_P2;Temp;Humidity;BMP_temperature;BMP_pressure;BME280_temperature;BME280_humidity;BME280_pressure;Samples;Min_cycle;Max_cycle;Signal;HPM_P1;HPM_P2
2023/06/27 00:01:44;;;;;;;14.40;7.10;;;;;;;22.19;42.03;99332.89;103609;1253;97858;-78
2023/06/27 00:04:09;;;;;;;8.90;6.80;;;;;;;22.18;42.16;99369.48;103505;1253;112178;-79
2023/06/27 00:06:37;;;;;;;18.50;9.30;;;;;;;22.18;43.07;99357.94;103527;1257;137748;-79
2023/06/27 00:09:00;;;;;;;11.50;7.20;;;;;;;22.17;43.59;99353.28;103301;1254;97835;-78
2023/06/27 00:11:24;;;;;;;7.30;6.30;;;;;;;22.16;43.29;99333.23;103704;1254;137826;-79
2023/06/27 00:13:49;;;;;;;10.60;7.50;;;;;;;22.14;43.30;99338.67;103485;1253;97803;-79
2023/06/27 00:16:13;;;;;;;7.90;6.30;;;;;;;22.07;43.12;99346.23;103516;1254;111305;-80
2023/06/27 00:18:37;;;;;;;13.30;6.80;;;;;;;22.02;43.21;99350.96;103492;1254;137594;-78
2023/06/27 00:21:01;;;;;;;17.80;10.30;;;;;;;21.95;43.57;99344.17;103479;1253;97889;-77
2023/06/27 00:23:33;;;;;;;13.90;9.70;;;;;;;21.91;43.50;99340.65;103412;1256;137957;-80
2023/06/27 00:25:56;;;;;;;22.40;15.90;;;;;;;21.88;43.65;99345.91;103524;1256;97654;-80
2023/06/27 00:28:20;;;;;;;20.80;13.70;;;;;;;21.88;43.93;99346.74;103650;1251;111765;-78
2023/06/27 00:30:43;;;;;;;32.80;19.90;;;;;;;21.87;44.21;99338.89;103511;1253;137988;-78
2023/06/27 00:33:09;;;;;;;23.80;14.90;;;;;;;21.84;44.24;99344.98;103470;1254;97792;-77
2023/06/27 00:35:33;;;;;;;20.70;10.70;;;;;;;21.78;44.35;99348.79;103607;1252;138631;-77
2023/06/27 00:37:56;;;;;;;19.30;11.20;;;;;;;21.71;44.66;99341.05;103704;1253;97758;-76
2023/06/27 00:40:20;;;;;;;12.60;8.80;;;;;;;21.70;45.01;99333.39;103486;1253;110695;-77
2023/06/27 00:42:44;;;;;;;12.50;7.50;;;;;;;21.65;45.15;99341.79;103465;1254;137825;-76
2023/06/27 00:45:09;;;;;;;8.80;7.00;;;;;;;21.57;45.33;99345.80;103507;1253;99437;-76
2023/06/27 00:47:33;;;;;;;11.60;6.30;;;;;;;21.44;45.67;99340.75;103650;1252;138190;-77
2023/06/27 00:49:57;;;;;;;11.50;7.60;;;;;;;21.34;45.91;99346.10;103530;1254;97634;-78
2023/06/27 00:52:20;;;;;;;9.00;6.00;;;;;;;21.25;46.32;99340.94;103586;1253;111790;-78
2023/06/27 00:54:44;;;;;;;10.50;6.60;;;;;;;21.19;46.70;99344.46;103489;1255;137633;-79
2023/06/27 00:57:09;;;;;;;9.90;6.00;;;;;;;21.11;47.10;99343.75;103395;1254;97854;-75
2023/06/27 01:00:22;;;;;;;11.80;7.20;;;;;;;21.05;47.37;99348.86;103551;1254;137729;-80
2023/06/27 01:03:11;;;;;;;6.90;5.70;;;;;;;20.98;47.87;99347.08;104062;1253;97905;-79
2023/06/27 01:05:36;;;;;;;12.30;6.30;;;;;;;20.90;48.15;99347.20;103630;1254;137644;-80
2023/06/27 01:08:06;;;;;;;8.30;5.90;;;;;;;20.83;48.54;99351.05;103739;1253;107053;-79
2023/06/27 01:10:35;;;;;;;8.20;6.20;;;;;;;20.75;49.22;99354.40;103615;1256;97702;-80
2023/06/27 01:13:05;;;;;;;7.40;5.60;;;;;;;20.68;49.72;99355.41;103303;1254;137485;-77
2023/06/27 01:15:29;;;;;;;8.30;5.70;;;;;;;20.57;50.21;99355.15;103558;1254;97784;-80
2023/06/27 01:17:53;;;;;;;10.50;6.60;;;;;;;20.48;50.71;99358.89;103483;1253;137466;-80
2023/06/27 01:20:19;;;;;;;8.50;6.20;;;;;;;20.42;51.39;99362.58;103664;1254;107499;-80
2023/06/27 01:22:47;;;;;;;7.00;5.30;;;;;;;20.33;51.83;99362.50;103411;1254;97861;-79
2023/06/27 01:25:12;;;;;;;8.70;5.80;;;;;;;20.24;52.07;99362.56;103717;1254;137367;-79
2023/06/27 01:27:36;;;;;;;7.50;6.00;;;;;;;20.17;52.58;99350.98;103667;1253;97794;-80
2023/06/27 01:30:00;;;;;;;8.80;6.10;;;;;;;20.09;52.82;99351.46;103466;1250;138399;-78
2023/06/27 01:32:28;;;;;;;10.50;7.30;;;;;;;20.02;53.56;99347.66;103549;1254;108567;-78
2023/06/27 01:35:02;;;;;;;9.50;6.70;;;;;;;19.99;54.01;99351.69;103664;1253;97787;-78
2023/06/27 01:37:32;;;;;;;10.10;6.60;;;;;;;19.98;54.58;99347.20;103412;1254;137344;-79
2023/06/27 01:40:03;;;;;;;12.70;8.20;;;;;;;19.95;54.86;99347.98;103524;1256;97762;-78
2023/06/27 01:42:31;;;;;;;10.10;7.60;;;;;;;19.90;55.54;99347.75;103476;1254;138296;-77
2023/06/27 01:44:58;;;;;;;7.80;6.80;;;;;;;19.85;55.96;99347.89;103637;1253;107314;-77
2023/06/27 01:47:23;;;;;;;9.50;7.50;;;;;;;19.81;56.36;99347.67;103372;1254;138472;-77
2023/06/27 01:49:47;;;;;;;7.90;6.50;;;;;;;19.75;56.74;99346.46;103544;1253;107694;-78
2023/06/27 01:52:12;;;;;;;10.90;6.90;;;;;;;19.66;57.20;99347.38;103420;1254;97815;-78
2023/06/27 01:54:36;;;;;;;13.90;6.70;;;;;;;19.59;57.72;99343.89;103504;1254;138412;-77
2023/06/27 01:56:59;;;;;;;9.80;7.50;;;;;;;19.49;58.04;99346.66;103573;1253;107823;-77
2023/06/27 01:59:23;;;;;;;9.40;7.60;;;;;;;19.43;58.77;99344.88;103437;1253;138452;-77
2023/06/27 02:01:47;;;;;;;14.30;7.00;;;;;;;19.37;59.04;99344.99;103347;1253;108605;-77
2023/06/27 02:04:11;;;;;;;11.10;6.70;;;;;;;19.30;59.83;99354.60;103921;1257;97791;-78
2023/06/27 02:06:36;;;;;;;8.50;6.90;;;;;;;19.21;60.19;99344.73;103321;1254;138362;-78
2023/06/27 02:08:59;;;;;;;11.10;6.80;;;;;;;19.13;60.43;99345.98;103503;1254;106920;-78
2023/06/27 02:11:23;;;;;;;8.90;7.10;;;;;;;19.03;60.80;99347.13;103436;1252;138665;-77
2023/06/27 02:13:46;;;;;;;10.60;6.90;;;;;;;18.95;61.38;99341.46;103468;1253;108157;-77
2023/06/27 02:16:11;;;;;;;10.50;6.80;;;;;;;18.91;61.56;99334.54;103403;1253;97877;-78
2023/06/27 02:18:35;;;;;;;17.20;9.90;;;;;;;18.85;61.92;99328.33;103456;1251;138367;-77
2023/06/27 02:21:01;;;;;;;13.30;9.50;;;;;;;18.88;62.18;99328.41;103525;1252;108217;-76
2023/06/27 02:23:25;;;;;;;8.50;7.00;;;;;;;18.89;62.37;99330.46;103461;1253;138679;-78
2023/06/27 02:25:49;;;;;;;10.60;7.80;;;;;;;18.86;62.74;99332.84;103582;1254;108963;-79
2023/06/27 02:28:12;;;;;;;14.80;7.90;;;;;;;18.84;63.07;99336.33;103451;1252;97811;-78
2023/06/27 02:30:36;;;;;;;12.50;7.80;;;;;;;18.85;63.46;99345.27;103400;1251;138437;-78
2023/06/27 02:33:00;;;;;;;11.20;7.40;;;;;;;18.89;64.03;99342.11;103626;1256;107582;-79
2023/06/27 02:35:24;;;;;;;11.40;7.40;;;;;;;18.89;63.92;99340.35;103740;1253;139166;-79
2023/06/27 02:37:47;;;;;;;11.00;7.70;;;;;;;18.87;64.35;99330.66;103548;1254;108067;-79
2023/06/27 02:40:13;;;;;;;10.30;7.50;;;;;;;18.85;64.44;99322.17;103542;1253;97821;-79
2023/06/27 02:42:36;;;;;;;10.40;7.80;;;;;;;18.84;64.72;99314.20;103773;1253;138348;-80
2023/06/27 02:44:59;;;;;;;10.60;8.00;;;;;;;18.81;65.09;99316.65;103592;1254;108416;-80
2023/06/27 02:47:23;;;;;;;9.90;8.00;;;;;;;18.79;65.40;99314.93;103388;1257;138728;-79
2023/06/27 02:49:47;;;;;;;11.20;8.00;;;;;;;18.73;65.77;99303.94;103435;1253;109128;-80
2023/06/27 02:52:10;;;;;;;13.00;8.00;;;;;;;18.66;65.91;99296.02;103553;1253;97762;-81
2023/06/27 02:54:34;;;;;;;10.60;7.30;;;;;;;18.62;66.30;99292.16;103474;1253;138624;-80
2023/06/27 02:56:58;;;;;;;11.30;8.10;;;;;;;18.59;66.55;99289.16;103581;1256;107400;-81
2023/06/27 02:59:22;;;;;;;9.70;7.80;;;;;;;18.59;66.77;99291.11;103445;1256;138838;-80
2023/06/27 03:01:46;;;;;;;11.20;8.40;;;;;;;18.57;67.01;99287.58;103530;1253;108228;-81
2023/06/27 03:04:11;;;;;;;11.10;8.40;;;;;;;18.55;67.28;99288.48;103582;1253;98005;-79
2023/06/27 03:06:43;;;;;;;12.00;8.30;;;;;;;18.51;67.57;99279.47;103672;1256;138586;-81
2023/06/27 03:09:07;;;;;;;11.20;8.30;;;;;;;18.50;67.88;99271.31;103414;1256;108417;-78
2023/06/27 03:11:32;;;;;;;13.20;9.20;;;;;;;18.50;68.04;99263.91;103493;1254;139150;-77
2023/06/27 03:13:56;;;;;;;13.40;8.30;;;;;;;18.47;68.34;99267.67;103937;1252;108467;-78
2023/06/27 03:16:20;;;;;;;10.60;8.40;;;;;;;18.45;68.59;99264.59;103435;1254;97813;-78
2023/06/27 03:18:47;;;;;;;10.80;8.70;;;;;;;18.45;68.79;99264.23;103456;1256;138467;-78
2023/06/27 03:21:11;;;;;;;10.60;8.90;;;;;;;18.44;69.09;99263.14;103462;1254;107919;-77
2023/06/27 03:23:34;;;;;;;12.80;8.50;;;;;;;18.41;69.17;99265.14;103297;1253;138864;-78
2023/06/27 03:25:58;;;;;;;12.70;9.00;;;;;;;18.40;69.36;99275.73;103476;1256;108918;-78
2023/06/27 03:28:23;;;;;;;11.70;9.00;;;;;;;18.42;69.80;99279.77;103564;1254;97873;-79
2023/06/27 03:30:49;;;;;;;19.00;13.50;;;;;;;18.42;69.89;99269.97;103464;1252;138321;-78
2023/06/27 03:33:13;;;;;;;12.80;9.90;;;;;;;18.41;70.12;99269.15;103502;1253;107667;-79
2023/06/27 03:35:37;;;;;;;10.60;8.60;;;;;;;18.44;70.43;99277.59;103369;1253;139378;-78
2023/06/27 03:38:02;;;;;;;14.30;9.00;;;;;;;18.45;70.66;99278.50;103867;1254;108310;-78
2023/06/27 03:40:26;;;;;;;14.60;9.50;;;;;;;18.48;70.82;99276.39;103679;1257;97798;-79
2023/06/27 03:42:50;;;;;;;11.70;8.90;;;;;;;18.51;70.95;99279.80;103443;1251;138331;-78
2023/06/27 03:45:14;;;;;;;11.60;8.60;;;;;;;18.56;71.03;99282.77;103383;1253;108319;-77
2023/06/27 03:47:38;;;;;;;14.80;9.70;;;;;;;18.57;70.94;99288.45;103809;1253;138734;-78
2023/06/27 03:50:02;;;;;;;11.90;8.60;;;;;;;18.58;70.93;99292.57;103884;1253;106939;-78
2023/06/27 03:52:29;;;;;;;10.90;8.20;;;;;;;18.58;70.79;99296.13;103541;1255;97698;-78
2023/06/27 03:54:52;;;;;;;14.80;9.00;;;;;;;18.59;70.88;99300.86;103529;1253;138368;-78
2023/06/27 03:57:16;;;;;;;12.50;8.60;;;;;;;18.59;71.15;99305.20;103517;1254;109514;-78
2023/06/27 03:59:40;;;;;;;15.00;9.10;;;;;;;18.58;71.29;99303.33;103515;1252;138690;-78
2023/06/27 04:02:04;;;;;;;13.70;9.20;;;;;;;18.56;71.46;99307.39;103467;1256;107786;-79
2023/06/27 04:04:28;;;;;;;11.40;9.10;;;;;;;18.54;71.60;99311.98;103453;1252;97725;-79
2023/06/27 04:06:52;;;;;;;13.60;9.40;;;;;;;18.50;71.60;99316.51;103530;1253;139059;-77
2023/06/27 04:09:15;;;;;;;12.90;9.50;;;;;;;18.47;71.94;99321.14;103987;1253;108319;-77
2023/06/27 04:11:42;;;;;;;10.80;8.10;;;;;;;18.43;72.06;99321.64;103494;1254;138727;-75
2023/06/27 04:14:06;;;;;;;12.00;8.90;;;;;;;18.40;72.11;99321.86;103442;1253;107826;-79
2023/06/27 04:16:29;;;;;;;10.70;8.70;;;;;;;18.39;72.20;99322.29;103969;1253;97801;-80
2023/06/27 04:18:53;;;;;;;13.70;9.20;;;;;;;18.40;72.30;99321.38;103336;1257;138305;-80
2023/06/27 04:21:18;;;;;;;11.20;8.80;;;;;;;18.40;72.63;99323.25;103724;1253;108948;-78
2023/06/27 04:23:41;;;;;;;13.10;9.70;;;;;;;18.40;72.78;99321.52;103505;1250;138642;-78
2023/06/27 04:26:07;;;;;;;11.70;9.00;;;;;;;18.41;72.85;99319.14;103522;1253;107759;-79
2023/06/27 04:28:33;;;;;;;11.50;8.70;;;;;;;18.43;73.01;99323.55;103607;1256;97714;-80
2023/06/27 04:30:56;;;;;;;13.20;9.10;;;;;;;18.45;73.12;99326.71;103491;1254;138532;-78
2023/06/27 04:33:23;;;;;;;14.30;8.90;;;;;;;18.50;73.21;99322.89;103765;1251;108388;-76
2023/06/27 04:35:47;;;;;;;12.40;8.90;;;;;;;18.53;73.50;99323.70;103521;1254;138837;-76
2023/06/27 04:38:14;;;;;;;13.60;9.10;;;;;;;18.55;73.53;99324.34;103567;1256;108707;-77
2023/06/27 04:40:37;;;;;;;12.60;9.40;;;;;;;18.57;73.80;99320.50;103835;1252;97804;-76
2023/06/27 04:43:01;;;;;;;13.80;9.20;;;;;;;18.57;73.81;99312.20;103690;1252;139602;-78
2023/06/27 04:45:25;;;;;;;10.10;8.60;;;;;;;18.60;73.73;99304.78;103603;1254;108201;-77
2023/06/27 04:47:49;;;;;;;10.90;8.70;;;;;;;18.61;73.79;99303.63;103421;1251;138882;-77
2023/06/27 04:50:18;;;;;;;13.70;8.50;;;;;;;18.61;73.79;99296.21;103612;1254;108625;-78
2023/06/27 04:52:43;;;;;;;11.60;8.50;;;;;;;18.63;74.20;99293.11;103746;1252;97880;-78
2023/06/27 04:55:09;;;;;;;11.50;8.80;;;;;;;18.64;74.16;99290.78;103984;1253;139143;-78
2023/06/27 04:57:32;;;;;;;10.20;8.30;;;;;;;18.64;74.15;99286.14;103591;1253;107884;-79
2023/06/27 04:59:56;;;;;;;9.50;8.10;;;;;;;18.67;74.35;99283.95;103456;1254;139085;-79
2023/06/27 05:02:20;;;;;;;11.90;8.70;;;;;;;18.70;74.23;99284.23;103623;1254;107473;-79
2023/06/27 05:04:44;;;;;;;10.60;8.20;;;;;;;18.72;74.49;99280.29;103387;1254;97872;-79
2023/06/27 05:07:07;;;;;;;11.30;8.60;;;;;;;18.68;74.53;99278.98;103519;1254;138515;-76
2023/06/27 05:09:31;;;;;;;10.40;8.00;;;;;;;18.66;74.61;99278.27;103566;1254;108463;-85
2023/06/27 05:11:55;;;;;;;9.90;8.80;;;;;;;18.65;74.87;99277.95;103394;1256;138594;-81
2023/06/27 05:14:18;;;;;;;10.30;8.30;;;;;;;18.66;75.17;99277.35;103564;1253;107540;-80
2023/06/27 05:16:42;;;;;;;12.40;8.70;;;;;;;18.67;75.44;99274.50;103561;1253;97986;-78
2023/06/27 05:19:06;;;;;;;10.60;8.40;;;;;;;18.66;75.64;99270.30;103419;1253;138362;-66
2023/06/27 05:21:29;;;;;;;13.10;9.70;;;;;;;18.66;75.98;99264.17;103479;1252;107650;-67
2023/06/27 05:23:54;;;;;;;11.10;8.80;;;;;;;18.66;76.21;99263.66;103790;1252;138624;-65
2023/06/27 05:26:18;;;;;;;13.80;9.30;;;;;;;18.66;76.46;99267.67;102713;1254;1002950;-77
2023/06/27 05:28:45;;;;;;;15.40;9.80;;;;;;;18.67;76.88;99268.12;103521;1253;98521;-76
2023/06/27 05:31:08;;;;;;;12.00;9.70;;;;;;;18.65;77.17;99269.34;103405;1253;138999;-75
2023/06/27 05:33:32;;;;;;;11.90;9.00;;;;;;;18.62;77.80;99270.84;103576;1254;106908;-74
2023/06/27 05:35:56;;;;;;;15.00;9.90;;;;;;;18.57;77.98;99273.71;103445;1254;138519;-75
2023/06/27 05:38:20;;;;;;;14.00;9.80;;;;;;;18.52;78.31;99275.84;104043;1256;108355;-73
2023/06/27 05:40:43;;;;;;;10.80;8.40;;;;;;;18.45;78.68;99273.41;103470;1255;97663;-68
2023/06/27 05:43:08;;;;;;;13.10;8.20;;;;;;;18.40;78.87;99276.11;103222;1253;138470;-63
2023/06/27 05:45:32;;;;;;;16.70;9.30;;;;;;;18.36;79.31;99283.13;103541;1251;108601;-89
2023/06/27 05:47:56;;;;;;;18.80;9.90;;;;;;;18.39;79.85;99290.61;103646;1254;138643;-87
2023/06/27 05:50:20;;;;;;;9.20;7.60;;;;;;;18.43;80.16;99293.80;104804;1254;107968;-71
2023/06/27 05:52:44;;;;;;;7.90;6.30;;;;;;;18.36;80.92;99295.05;103525;1253;97705;-72
2023/06/27 05:55:10;;;;;;;6.80;3.60;;;;;;;18.25;79.83;99302.80;103325;1254;139412;-70
2023/06/27 05:57:34;;;;;;;5.50;3.60;;;;;;;18.11;78.75;99306.91;103428;1252;106921;-70
2023/06/27 05:59:58;;;;;;;7.80;3.10;;;;;;;17.98;77.99;99310.23;103346;1253;138502;-70
2023/06/27 06:02:21;;;;;;;6.90;3.60;;;;;;;17.84;77.44;99316.25;103352;1252;106891;-70
2023/06/27 06:04:45;;;;;;;6.20;3.20;;;;;;;17.72;77.37;99318.21;103443;1256;98350;-70
2023/06/27 06:07:09;;;;;;;5.50;3.10;;;;;;;17.63;77.13;99319.78;103299;1252;138960;-68
2023/06/27 06:09:33;;;;;;;9.20;3.90;;;;;;;17.54;77.46;99326.91;103321;1256;107542;-70
2023/06/27 06:11:57;;;;;;;9.50;4.00;;;;;;;17.47;77.94;99327.28;103350;1252;138870;-72
2023/06/27 06:14:21;;;;;;;6.90;3.40;;;;;;;17.40;77.86;99332.02;103409;1253;107748;-72
2023/06/27 06:16:45;;;;;;;8.80;4.60;;;;;;;17.34;78.28;99337.39;103462;1254;97802;-72
2023/06/27 06:19:09;;;;;;;7.30;3.60;;;;;;;17.33;78.44;99339.42;103291;1256;138096;-72
2023/06/27 06:21:32;;;;;;;9.00;3.50;;;;;;;17.33;78.60;99340.13;103380;1255;107679;-72
2023/06/27 06:23:56;;;;;;;7.00;3.70;;;;;;;17.30;78.77;99341.77;103424;1254;138418;-72
2023/06/27 06:26:20;;;;;;;6.10;3.50;;;;;;;17.22;79.13;99351.29;103364;1256;108732;-71
2023/06/27 06:28:43;;;;;;;6.10;3.40;;;;;;;17.18;79.66;99355.48;103452;1254;98372;-72
2023/06/27 06:31:10;;;;;;;6.30;3.70;;;;;;;17.14;79.54;99354.34;103338;1256;138278;-72
2023/06/27 06:33:34;;;;;;;6.40;3.30;;;;;;;17.12;79.68;99359.27;103442;1256;107156;-71
2023/06/27 06:35:58;;;;;;;5.10;3.60;;;;;;;17.11;79.85;99357.75;103350;1251;138688;-71
2023/06/27 06:38:21;;;;;;;6.80;3.80;;;;;;;17.12;80.20;99360.44;103457;1251;108330;-74
2023/06/27 06:40:45;;;;;;;4.70;3.30;;;;;;;17.16;80.01;99364.41;103410;1254;97804;-71
2023/06/27 06:43:09;;;;;;;10.10;4.50;;;;;;;17.23;79.93;99365.82;103334;1254;138071;-71
2023/06/27 06:45:32;;;;;;;6.30;3.80;;;;;;;17.33;79.78;99361.73;103453;1253;108706;-72
2023/06/27 06:47:56;;;;;;;6.10;4.20;;;;;;;17.43;79.49;99364.46;103332;1255;138374;-72
2023/06/27 06:50:20;;;;;;;6.50;4.20;;;;;;;17.50;79.47;99367.81;103444;1256;107631;-72
2023/06/27 06:52:44;;;;;;;9.60;4.70;;;;;;;17.57;79.21;99365.58;103469;1256;97771;-72
2023/06/27 06:55:08;;;;;;;9.60;4.30;;;;;;;17.68;79.10;99367.09;103355;1256;138896;-73
2023/06/27 06:57:32;;;;;;;7.30;4.20;;;;;;;17.81;78.82;99369.77;103355;1251;105694;-73
2023/06/27 06:59:56;;;;;;;7.60;4.20;;;;;;;17.94;78.35;99376.69;103296;1256;138349;-73
2023/06/27 07:02:19;;;;;;;9.10;4.20;;;;;;;18.05;77.83;99374.17;103447;1253;106534;-73
2023/06/27 07:04:42;;;;;;;7.50;4.20;;;;;;;18.24;77.54;99369.61;103442;1255;97780;-73
2023/06/27 07:07:07;;;;;;;18.20;8.00;;;;;;;18.48;76.95;99366.61;103342;1253;138106;-72
2023/06/27 07:09:31;;;;;;;7.40;3.40;;;;;;;18.79;75.65;99370.36;103383;1256;108037;-70
2023/06/27 07:11:58;;;;;;;8.00;3.70;;;;;;;19.03;74.93;99368.66;103385;1255;138320;-72
2023/06/27 07:14:22;;;;;;;7.30;3.60;;;;;;;19.29;73.89;99367.52;103495;1252;108218;-72
2023/06/27 07:16:45;;;;;;;8.90;4.60;;;;;;;19.60;73.11;99362.33;103392;1253;97783;-72
2023/06/27 07:19:09;;;;;;;7.90;3.80;;;;;;;20.29;71.93;99370.07;103406;1253;138207;-72
2023/06/27 07:21:34;;;;;;;8.30;3.10;;;;;;;21.34;69.54;99369.23;103491;1254;106066;-72
2023/06/27 07:23:58;;;;;;;7.60;2.90;;;;;;;22.30;66.89;99366.59;103340;1254;138660;-72
2023/06/27 07:26:21;;;;;;;8.00;3.10;;;;;;;22.90;65.23;99373.55;103466;1251;107978;-72
2023/06/27 07:28:45;;;;;;;5.20;2.90;;;;;;;23.27;63.28;99370.10;103393;1254;98582;-73
2023/06/27 07:31:09;;;;;;;5.80;2.60;;;;;;;23.60;62.08;99377.44;103358;1256;137700;-73
2023/06/27 07:33:32;;;;;;;5.60;2.90;;;;;;;24.00;61.36;99378.59;103457;1254;107424;-73
2023/06/27 07:35:56;;;;;;;7.70;2.60;;;;;;;24.63;58.82;99377.71;103460;1254;137806;-72
2023/06/27 07:38:19;;;;;;;6.10;2.90;;;;;;;24.87;57.22;99375.10;103551;1254;106472;-73
2023/06/27 07:40:43;;;;;;;6.00;2.80;;;;;;;25.27;56.60;99365.45;103479;1252;97851;-73
2023/06/27 07:43:07;;;;;;;6.10;2.60;;;;;;;26.10;55.28;99364.03;103378;1256;137528;-73
2023/06/27 07:45:30;;;;;;;9.00;5.20;;;;;;;27.23;52.38;99361.19;103409;1254;107573;-73
2023/06/27 07:47:54;;;;;;;9.40;3.00;;;;;;;27.62;50.36;99361.09;103204;1254;137607;-73
2023/06/27 07:50:17;;;;;;;6.60;2.40;;;;;;;28.25;49.98;99365.65;103124;1253;360656;-75
2023/06/27 07:52:42;;;;;;;7.60;2.40;;;;;;;28.43;48.47;99362.25;103439;1252;97773;-78
2023/06/27 07:55:07;;;;;;;6.00;2.70;;;;;;;27.97;48.20;99361.67;103336;1256;137526;-74
2023/06/27 07:57:31;;;;;;;6.90;2.90;;;;;;;27.39;48.23;99360.05;103355;1254;107188;-74
2023/06/27 07:59:55;;;;;;;6.20;2.70;;;;;;;26.92;48.48;99357.99;103262;1256;137690;-79
2023/06/27 08:02:18;;;;;;;6.40;2.90;;;;;;;26.45;48.93;99365.54;103404;1254;107463;-79
2023/06/27 08:04:43;;;;;;;7.60;2.80;;;;;;;26.05;48.79;99365.92;103451;1254;97762;-79
2023/06/27 08:07:07;;;;;;;4.60;2.90;;;;;;;25.69;49.37;99368.74;103273;1253;138038;-78
2023/06/27 08:09:30;;;;;;;6.10;2.50;;;;;;;25.53;49.95;99370.09;103385;1253;109324;-78
2023/06/27 08:11:54;;;;;;;5.90;2.70;;;;;;;25.98;49.97;99369.16;103359;1256;137615;-78
2023/06/27 08:14:18;;;;;;;6.10;3.10;;;;;;;26.45;49.39;99366.59;103465;1251;108906;-78
2023/06/27 08:16:41;;;;;;;6.90;3.00;;;;;;;26.22;48.22;99367.73;103539;1256;97763;-77
2023/06/27 08:19:05;;;;;;;5.80;2.40;;;;;;;25.69;48.61;99369.27;103439;1254;137542;-78
2023/06/27 08:21:29;;;;;;;7.40;2.80;;;;;;;25.48;49.09;99366.55;103442;1256;107626;-77
2023/06/27 08:23:52;;;;;;;5.60;2.30;;;;;;;25.72;48.39;99364.17;103646;1253;137764;-81
2023/06/27 08:26:17;;;;;;;7.20;2.10;;;;;;;25.90;47.40;99360.73;103435;1253;107811;-77
2023/06/27 08:28:40;;;;;;;6.00;2.40;;;;;;;26.37;46.05;99368.90;103387;1253;97806;-76
2023/06/27 08:31:04;;;;;;;5.30;2.10;;;;;;;26.68;45.38;99372.77;103387;1253;137539;-74
2023/06/27 08:33:29;;;;;;;9.50;3.20;;;;;;;26.68;44.91;99377.02;103665;1254;107612;-74
2023/06/27 08:35:52;;;;;;;7.40;2.80;;;;;;;26.45;44.44;99380.30;103375;1256;137756;-75
2023/06/27 08:38:17;;;;;;;11.40;2.80;;;;;;;26.49;44.86;99380.73;103488;1253;107213;-75
2023/06/27 08:40:43;;;;;;;6.80;2.70;;;;;;;27.28;44.50;99381.35;103424;1254;97744;-69
2023/06/27 08:43:07;;;;;;;7.30;3.00;;;;;;;27.94;43.53;99381.34;103323;1253;137521;-73
2023/06/27 08:45:31;;;;;;;7.50;2.40;;;;;;;28.52;42.76;99384.95;103491;1254;106746;-73
2023/06/27 08:47:56;;;;;;;9.20;3.20;;;;;;;28.99;40.91;99387.40;103661;1253;137688;-74
2023/06/27 08:50:21;;;;;;;8.70;2.80;;;;;;;29.36;40.31;99389.48;103395;1254;107236;-78
2023/06/27 08:52:48;;;;;;;9.70;2.20;;;;;;;29.56;38.27;99389.77;103359;1254;97753;-72
2023/06/27 08:55:18;;;;;;;18.20;3.80;;;;;;;29.19;38.13;99399.28;103333;1254;138920;-81
2023/06/27 08:57:43;;;;;;;8.60;2.00;;;;;;;28.83;38.64;99404.74;103360;1254;107466;-77
2023/06/27 09:00:12;;;;;;;6.00;1.80;;;;;;;28.74;38.93;99410.27;103384;1251;138436;-78
2023/06/27 09:02:38;;;;;;;8.50;1.90;;;;;;;28.63;37.90;99404.99;103569;1254;108530;-77
2023/06/27 09:05:01;;;;;;;;;;;;;;;28.32;37.05;99402.16;103508;1256;97781;-79
2023/06/27 09:07:25;;;;;;;5.90;2.10;;;;;;;28.00;37.44;99407.98;103322;1252;123842;-77
2023/06/27 09:09:51;;;;;;;10.40;1.70;;;;;;;27.87;36.76;99412.92;103386;1256;107981;-76
2023/06/27 09:12:14;;;;;;;5.00;1.70;;;;;;;27.75;36.90;99414.13;103760;1254;137994;-77
2023/06/27 09:14:38;;;;;;;5.10;1.70;;;;;;;27.62;37.12;99411.50;103352;1253;107906;-74
2023/06/27 09:17:04;;;;;;;6.00;1.90;;;;;;;27.56;37.49;99410.62;103340;1256;97867;-74
2023/06/27 09:19:28;;;;;;;5.20;2.10;;;;;;;27.82;37.88;99411.15;103350;1254;137360;-74
2023/06/27 09:21:53;;;;;;;5.50;1.60;;;;;;;28.19;37.87;99411.95;103358;1253;107784;-74
2023/06/27 09:24:22;;;;;;;;;;;;;;;28.50;37.39;99406.50;103727;1256;137645;-75
2023/06/27 09:26:45;;;;;;;6.30;1.90;;;;;;;28.54;36.56;99411.81;103381;1251;107324;-74
2023/06/27 09:29:09;;;;;;;4.80;1.90;;;;;;;28.81;36.31;99412.17;103449;1254;98532;-73
2023/06/27 09:31:33;;;;;;;5.90;1.50;;;;;;;29.02;35.91;99413.94;103439;1256;111707;-74
2023/06/27 09:34:09;;;;;;;6.10;1.90;;;;;;;28.74;35.62;99411.39;103242;1254;106838;-73
2023/06/27 09:36:35;;;;;;;10.00;1.90;;;;;;;28.22;36.55;99416.27;103379;1256;137874;-73
2023/06/27 09:39:04;;;;;;;10.80;1.90;;;;;;;27.63;36.83;99415.34;103470;1252;109114;-73
2023/06/27 09:41:40;;;;;;;7.40;2.00;;;;;;;26.99;37.56;99416.39;103217;1256;138406;-72
2023/06/27 09:44:04;;;;;;;5.10;1.60;;;;;;;26.75;37.68;99417.42;103315;1252;111754;-73
2023/06/27 09:46:28;;;;;;;8.80;1.80;;;;;;;27.05;37.54;99423.06;103400;1252;108258;-73
2023/06/27 09:48:53;;;;;;;6.10;2.20;;;;;;;27.53;36.29;99412.36;103586;1253;137693;-73
2023/06/27 09:51:24;;;;;;;4.80;1.50;;;;;;;27.76;35.91;99411.54;103365;1256;108255;-73
2023/06/27 09:53:54;;;;;;;4.90;1.70;;;;;;;27.97;36.06;99417.21;103277;1254;138021;-73
2023/06/27 09:56:29;;;;;;;6.60;1.60;;;;;;;28.14;35.83;99420.77;103592;1256;111077;-73
2023/06/27 09:58:54;;;;;;;3.70;1.50;;;;;;;28.04;35.02;99419.28;103494;1253;108236;-73
2023/06/27 10:01:18;;;;;;;6.50;1.80;;;;;;;28.30;34.65;99417.39;103251;1256;137635;-73
2023/06/27 10:03:48;;;;;;;5.70;1.70;;;;;;;28.60;33.82;99422.61;103377;1256;107627;-72
2023/06/27 10:06:12;;;;;;;11.10;1.90;;;;;;;28.95;33.34;99427.70;103471;1256;137646;-71
2023/06/27 10:08:56;;;;;;;3.50;1.70;;;;;;;28.85;33.01;99424.05;103509;1256;112094;-72
2023/06/27 10:11:19;;;;;;;3.20;1.40;;;;;;;28.42;32.31;99426.19;103445;1251;137873;-72
2023/06/27 10:13:44;;;;;;;7.40;1.70;;;;;;;28.06;33.02;99439.79;103540;1253;97773;-72
2023/06/27 10:16:09;;;;;;;6.70;2.60;;;;;;;28.00;33.05;99440.40;103991;1254;107278;-72
2023/06/27 10:18:33;;;;;;;6.90;1.80;;;;;;;28.18;32.79;99442.23;103483;1254;138590;-74
2023/06/27 10:20:56;;;;;;;3.40;1.50;;;;;;;27.97;32.46;99444.02;103571;1256;111328;-72
2023/06/27 10:23:21;;;;;;;3.90;1.50;;;;;;;27.51;31.91;99444.45;103412;1256;137937;-74
2023/06/27 10:25:45;;;;;;;6.40;1.70;;;;;;;27.21;33.00;99437.85;103562;1256;97886;-75
2023/06/27 10:28:14;;;;;;;7.90;1.90;;;;;;;27.38;33.42;99438.02;103513;1254;108155;-75
2023/06/27 10:30:44;;;;;;;5.10;1.50;;;;;;;27.68;33.18;99436.73;103426;1254;137741;-75
2023/06/27 10:33:10;;;;;;;3.20;1.50;;;;;;;27.93;32.77;99436.15;103642;1254;111354;-74
2023/06/27 10:35:38;;;;;;;3.60;1.30;;;;;;;27.96;32.41;99432.37;103448;1254;137944;-74
2023/06/27 10:38:08;;;;;;;4.00;1.30;;;;;;;27.75;32.47;99431.94;103700;1256;98105;-74
2023/06/27 10:41:09;;;;;;;3.20;1.30;;;;;;;27.71;32.55;99433.67;103553;1254;107059;-74
2023/06/27 10:43:37;;;;;;;4.30;1.60;;;;;;;27.75;32.50;99438.77;103520;1254;97795;-75
2023/06/27 10:46:06;;;;;;;5.20;1.50;;;;;;;27.61;32.56;99436.77;103895;1253;111741;-74
2023/06/27 10:48:32;;;;;;;47.10;4.90;;;;;;;27.72;33.22;99429.35;103579;1253;137733;-72
2023/06/27 10:51:07;;;;;;;10.50;2.20;;;;;;;28.02;34.17;99431.69;103510;1253;97948;-74
2023/06/27 10:53:30;;;;;;;8.00;1.70;;;;;;;27.86;32.03;99421.98;103820;1253;137964;-73
2023/06/27 10:55:55;;;;;;;8.40;1.90;;;;;;;27.64;31.60;99420.26;103550;1254;97760;-74
2023/06/27 10:58:26;;;;;;;5.30;1.60;;;;;;;27.56;32.21;99422.58;103565;1254;111601;-74
2023/06/27 11:00:52;;;;;;;5.60;1.80;;;;;;;27.61;32.49;99422.52;103314;1254;137927;-74
2023/06/27 11:03:20;;;;;;;8.50;1.40;;;;;;;27.64;32.39;99419.83;103515;1254;97867;-74
2023/06/27 11:05:49;;;;;;;5.70;1.60;;;;;;;27.64;32.10;99424.14;103432;1251;137596;-73
2023/06/27 11:08:17;;;;;;;9.10;2.10;;;;;;;27.60;32.21;99414.57;104332;1255;95926;-75